sensor_id;sensor_type;location;lat;lon;timestamp;P1;durP1;ratioP1;P2;durP2;ratioP2
10659;SDS011;5378;53.206;13.316;2023-03-23T00:02:39;11.53;;;2.50;;
10659;SDS011;5378;53.206;13.316;2023-03-23T00:05:25;3.00;;;1.90;;
10659;SDS011;5378;53.206;13.316;2023-03-23T00:08:14;4.60;;;1.77;;
10659;SDS011;5378;53.206;13.316;2023-03-23T00:11:00;3.30;;;2.20;;
10659;SDS011;5378;53.206;13.316;2023-03-23T00:13:47;5.00;;;2.30;;
10659;SDS011;5378;53.206;13.316;2023-03-23T00:16:36;5.67;;;2.00;;
10659;SDS011;5378;53.206;13.316;2023-03-23T00:19:23;10.33;;;2.40;;
10659;SDS011;5378;53.206;13.316;2023-03-23T00:22:09;6.83;;;4.17;;
10659;SDS011;5378;53.206;13.316;2023-03-23T00:24:57;4.43;;;2.10;;
10659;SDS011;5378;53.206;13.316;2023-03-23T00:27:43;2.40;;;1.90;;
10659;SDS011;5378;53.206;13.316;2023-03-23T00:30:30;2.90;;;2.00;;
10659;SDS011;5378;53.206;13.316;2023-03-23T00:33:17;4.43;;;2.23;;
10659;SDS011;5378;53.206;13.316;2023-03-23T00:36:03;5.33;;;2.40;;
10659;SDS011;5378;53.206;13.316;2023-03-23T00:38:53;4.20;;;2.27;;
10659;SDS011;5378;53.206;13.316;2023-03-23T00:41:43;2.33;;;1.90;;
10659;SDS011;5378;53.206;13.316;2023-03-23T00:44:31;2.10;;;1.60;;
10659;SDS011;5378;53.206;13.316;2023-03-23T00:47:19;5.57;;;2.43;;
10659;SDS011;5378;53.206;13.316;2023-03-23T00:50:05;8.97;;;2.50;;
10659;SDS011;5378;53.206;13.316;2023-03-23T00:52:52;3.10;;;2.23;;
10659;SDS011;5378;53.206;13.316;2023-03-23T00:55:41;4.93;;;2.90;;
10659;SDS011;5378;53.206;13.316;2023-03-23T00:58:29;4.43;;;2.80;;
10659;SDS011;5378;53.206;13.316;2023-03-23T01:01:16;3.13;;;2.50;;
10659;SDS011;5378;53.206;13.316;2023-03-23T01:04:02;7.80;;;2.60;;
10659;SDS011;5378;53.206;13.316;2023-03-23T01:06:49;3.20;;;2.57;;
10659;SDS011;5378;53.206;13.316;2023-03-23T01:09:36;3.70;;;2.33;;
10659;SDS011;5378;53.206;13.316;2023-03-23T01:12:24;4.50;;;2.33;;
10659;SDS011;5378;53.206;13.316;2023-03-23T01:15:14;9.03;;;3.17;;
10659;SDS011;5378;53.206;13.316;2023-03-23T01:18:01;3.50;;;2.50;;
10659;SDS011;5378;53.206;13.316;2023-03-23T01:20:48;3.67;;;2.67;;
10659;SDS011;5378;53.206;13.316;2023-03-23T01:23:34;5.77;;;2.60;;
10659;SDS011;5378;53.206;13.316;2023-03-23T01:26:21;3.83;;;2.50;;
10659;SDS011;5378;53.206;13.316;2023-03-23T01:29:09;6.77;;;2.70;;
10659;SDS011;5378;53.206;13.316;2023-03-23T01:31:57;8.90;;;3.00;;
10659;SDS011;5378;53.206;13.316;2023-03-23T01:34:43;3.50;;;2.57;;
10659;SDS011;5378;53.206;13.316;2023-03-23T01:37:29;6.73;;;3.17;;
10659;SDS011;5378;53.206;13.316;2023-03-23T01:40:17;8.87;;;2.63;;
10659;SDS011;5378;53.206;13.316;2023-03-23T01:43:07;5.30;;;3.23;;
10659;SDS011;5378;53.206;13.316;2023-03-23T01:45:57;4.63;;;3.27;;
10659;SDS011;5378;53.206;13.316;2023-03-23T01:48:45;5.33;;;2.63;;
10659;SDS011;5378;53.206;13.316;2023-03-23T01:51:31;7.30;;;2.43;;
10659;SDS011;5378;53.206;13.316;2023-03-23T01:54:18;3.73;;;2.50;;
10659;SDS011;5378;53.206;13.316;2023-03-23T01:57:07;6.03;;;2.60;;
10659;SDS011;5378;53.206;13.316;2023-03-23T01:59:59;6.53;;;3.07;;
10659;SDS011;5378;53.206;13.316;2023-03-23T02:03:10;2.97;;;2.20;;
10659;SDS011;5378;53.206;13.316;2023-03-23T02:05:59;2.57;;;1.93;;
10659;SDS011;5378;53.206;13.316;2023-03-23T02:08:57;3.47;;;2.63;;
10659;SDS011;5378;53.206;13.316;2023-03-23T02:11:43;4.33;;;2.00;;
10659;SDS011;5378;53.206;13.316;2023-03-23T02:14:29;3.40;;;2.33;;
10659;SDS011;5378;53.206;13.316;2023-03-23T02:17:18;6.13;;;2.30;;
10659;SDS011;5378;53.206;13.316;2023-03-23T02:20:19;3.70;;;2.23;;
10659;SDS011;5378;53.206;13.316;2023-03-23T02:23:25;3.97;;;2.70;;
10659;SDS011;5378;53.206;13.316;2023-03-23T02:26:38;4.63;;;2.10;;
10659;SDS011;5378;53.206;13.316;2023-03-23T02:29:42;3.87;;;2.20;;
10659;SDS011;5378;53.206;13.316;2023-03-23T02:32:53;3.83;;;2.23;;
10659;SDS011;5378;53.206;13.316;2023-03-23T02:36:05;4.60;;;2.63;;
10659;SDS011;5378;53.206;13.316;2023-03-23T02:38:59;4.10;;;2.47;;
10659;SDS011;5378;53.206;13.316;2023-03-23T02:41:50;7.23;;;2.70;;
10659;SDS011;5378;53.206;13.316;2023-03-23T02:44:40;4.40;;;1.87;;
10659;SDS011;5378;53.206;13.316;2023-03-23T02:47:29;3.97;;;2.27;;
10659;SDS011;5378;53.206;13.316;2023-03-23T02:50:17;7.60;;;2.63;;
10659;SDS011;5378;53.206;13.316;2023-03-23T02:53:08;5.47;;;2.73;;
10659;SDS011;5378;53.206;13.316;2023-03-23T02:55:57;2.37;;;1.93;;
10659;SDS011;5378;53.206;13.316;2023-03-23T02:58:47;5.20;;;2.60;;
10659;SDS011;5378;53.206;13.316;2023-03-23T03:01:53;3.07;;;2.40;;
10659;SDS011;5378;53.206;13.316;2023-03-23T03:04:46;3.90;;;2.43;;
10659;SDS011;5378;53.206;13.316;2023-03-23T03:07:48;3.40;;;2.23;;
10659;SDS011;5378;53.206;13.316;2023-03-23T03:10:44;4.23;;;2.97;;
10659;SDS011;5378;53.206;13.316;2023-03-23T03:13:37;3.67;;;2.90;;
10659;SDS011;5378;53.206;13.316;2023-03-23T03:16:33;4.07;;;2.50;;
10659;SDS011;5378;53.206;13.316;2023-03-23T03:19:24;4.20;;;2.43;;
10659;SDS011;5378;53.206;13.316;2023-03-23T03:22:12;4.13;;;2.80;;
10659;SDS011;5378;53.206;13.316;2023-03-23T03:24:59;4.30;;;2.70;;
10659;SDS011;5378;53.206;13.316;2023-03-23T03:27:48;7.93;;;2.50;;
10659;SDS011;5378;53.206;13.316;2023-03-23T03:30:45;5.53;;;2.50;;
10659;SDS011;5378;53.206;13.316;2023-03-23T03:33:33;6.70;;;2.87;;
10659;SDS011;5378;53.206;13.316;2023-03-23T03:36:21;7.10;;;3.70;;
10659;SDS011;5378;53.206;13.316;2023-03-23T03:39:09;6.70;;;3.67;;
10659;SDS011;5378;53.206;13.316;2023-03-23T03:41:56;3.60;;;2.50;;
10659;SDS011;5378;53.206;13.316;2023-03-23T03:44:43;3.87;;;2.90;;
10659;SDS011;5378;53.206;13.316;2023-03-23T03:47:29;6.93;;;3.27;;
10659;SDS011;5378;53.206;13.316;2023-03-23T03:50:15;8.90;;;3.40;;
10659;SDS011;5378;53.206;13.316;2023-03-23T03:53:02;5.97;;;3.93;;
10659;SDS011;5378;53.206;13.316;2023-03-23T03:55:48;3.73;;;2.63;;
10659;SDS011;5378;53.206;13.316;2023-03-23T03:58:35;6.60;;;3.37;;
10659;SDS011;5378;53.206;13.316;2023-03-23T04:01:49;3.93;;;2.87;;
10659;SDS011;5378;53.206;13.316;2023-03-23T04:04:38;7.60;;;3.57;;
10659;SDS011;5378;53.206;13.316;2023-03-23T04:07:24;3.50;;;2.97;;
10659;SDS011;5378;53.206;13.316;2023-03-23T04:10:13;8.00;;;4.90;;
10659;SDS011;5378;53.206;13.316;2023-03-23T04:13:03;4.77;;;2.80;;
10659;SDS011;5378;53.206;13.316;2023-03-23T04:15:52;4.13;;;3.20;;
10659;SDS011;5378;53.206;13.316;2023-03-23T04:18:39;5.90;;;3.20;;
10659;SDS011;5378;53.206;13.316;2023-03-23T04:21:27;9.73;;;3.40;;
10659;SDS011;5378;53.206;13.316;2023-03-23T04:24:13;8.20;;;4.20;;
10659;SDS011;5378;53.206;13.316;2023-03-23T04:27:00;6.07;;;2.73;;
10659;SDS011;5378;53.206;13.316;2023-03-23T04:29:47;6.23;;;3.30;;
10659;SDS011;5378;53.206;13.316;2023-03-23T04:32:52;4.00;;;2.70;;
10659;SDS011;5378;53.206;13.316;2023-03-23T04:35:43;6.70;;;3.40;;
10659;SDS011;5378;53.206;13.316;2023-03-23T04:38:38;6.73;;;3.27;;
10659;SDS011;5378;53.206;13.316;2023-03-23T04:41:32;9.53;;;3.10;;
10659;SDS011;5378;53.206;13.316;2023-03-23T04:44:28;4.30;;;2.93;;
10659;SDS011;5378;53.206;13.316;2023-03-23T04:47:32;3.50;;;2.57;;
10659;SDS011;5378;53.206;13.316;2023-03-23T04:50:27;4.90;;;2.97;;
10659;SDS011;5378;53.206;13.316;2023-03-23T04:53:20;6.53;;;3.40;;
10659;SDS011;5378;53.206;13.316;2023-03-23T04:56:07;5.47;;;3.50;;
10659;SDS011;5378;53.206;13.316;2023-03-23T04:59:00;9.87;;;3.37;;
10659;SDS011;5378;53.206;13.316;2023-03-23T05:01:56;10.60;;;4.80;;
10659;SDS011;5378;53.206;13.316;2023-03-23T05:04:43;12.53;;;3.70;;
10659;SDS011;5378;53.206;13.316;2023-03-23T05:07:37;7.90;;;3.33;;
10659;SDS011;5378;53.206;13.316;2023-03-23T05:10:25;6.03;;;3.70;;
10659;SDS011;5378;53.206;13.316;2023-03-23T05:13:15;7.40;;;4.10;;
10659;SDS011;5378;53.206;13.316;2023-03-23T05:16:06;5.83;;;3.70;;
10659;SDS011;5378;53.206;13.316;2023-03-23T05:18:54;7.10;;;4.33;;
10659;SDS011;5378;53.206;13.316;2023-03-23T05:21:42;11.00;;;4.60;;
10659;SDS011;5378;53.206;13.316;2023-03-23T05:24:29;8.90;;;4.43;;
10659;SDS011;5378;53.206;13.316;2023-03-23T05:27:20;7.90;;;5.10;;
10659;SDS011;5378;53.206;13.316;2023-03-23T05:30:07;8.40;;;4.57;;
10659;SDS011;5378;53.206;13.316;2023-03-23T05:32:57;5.90;;;4.00;;
10659;SDS011;5378;53.206;13.316;2023-03-23T05:35:58;5.27;;;4.30;;
10659;SDS011;5378;53.206;13.316;2023-03-23T05:38:50;8.40;;;5.00;;
10659;SDS011;5378;53.206;13.316;2023-03-23T05:41:37;6.33;;;3.90;;
10659;SDS011;5378;53.206;13.316;2023-03-23T05:44:25;7.37;;;4.40;;
10659;SDS011;5378;53.206;13.316;2023-03-23T05:47:15;8.17;;;4.80;;
10659;SDS011;5378;53.206;13.316;2023-03-23T05:50:08;6.30;;;4.57;;
10659;SDS011;5378;53.206;13.316;2023-03-23T05:52:56;6.87;;;4.03;;
10659;SDS011;5378;53.206;13.316;2023-03-23T05:55:43;7.57;;;4.13;;
10659;SDS011;5378;53.206;13.316;2023-03-23T05:58:40;8.00;;;4.60;;
10659;SDS011;5378;53.206;13.316;2023-03-23T06:01:27;6.00;;;3.93;;
10659;SDS011;5378;53.206;13.316;2023-03-23T06:04:13;8.23;;;4.50;;
10659;SDS011;5378;53.206;13.316;2023-03-23T06:07:15;6.13;;;4.07;;
10659;SDS011;5378;53.206;13.316;2023-03-23T06:10:12;5.70;;;3.40;;
10659;SDS011;5378;53.206;13.316;2023-03-23T06:13:01;6.80;;;4.03;;
10659;SDS011;5378;53.206;13.316;2023-03-23T06:15:59;7.03;;;3.37;;
10659;SDS011;5378;53.206;13.316;2023-03-23T06:19:05;4.10;;;3.20;;
10659;SDS011;5378;53.206;13.316;2023-03-23T06:21:53;7.10;;;4.30;;
10659;SDS011;5378;53.206;13.316;2023-03-23T06:24:59;6.80;;;3.60;;
10659;SDS011;5378;53.206;13.316;2023-03-23T06:27:53;7.60;;;3.70;;
10659;SDS011;5378;53.206;13.316;2023-03-23T06:30:39;4.20;;;3.30;;
10659;SDS011;5378;53.206;13.316;2023-03-23T06:33:26;5.07;;;3.60;;
10659;SDS011;5378;53.206;13.316;2023-03-23T06:36:36;4.53;;;3.23;;
10659;SDS011;5378;53.206;13.316;2023-03-23T06:39:30;3.60;;;2.70;;
10659;SDS011;5378;53.206;13.316;2023-03-23T06:42:35;6.10;;;3.07;;
10659;SDS011;5378;53.206;13.316;2023-03-23T06:45:40;4.00;;;2.57;;
10659;SDS011;5378;53.206;13.316;2023-03-23T06:48:52;5.83;;;3.27;;
10659;SDS011;5378;53.206;13.316;2023-03-23T06:51:48;5.57;;;2.90;;
10659;SDS011;5378;53.206;13.316;2023-03-23T06:54:34;6.40;;;3.17;;
10659;SDS011;5378;53.206;13.316;2023-03-23T06:57:22;4.57;;;2.40;;
10659;SDS011;5378;53.206;13.316;2023-03-23T07:00:10;5.07;;;3.07;;
10659;SDS011;5378;53.206;13.316;2023-03-23T07:03:00;6.23;;;3.00;;
10659;SDS011;5378;53.206;13.316;2023-03-23T07:05:47;5.27;;;2.93;;
10659;SDS011;5378;53.206;13.316;2023-03-23T07:08:38;4.97;;;2.87;;
10659;SDS011;5378;53.206;13.316;2023-03-23T07:11:29;6.10;;;2.50;;
10659;SDS011;5378;53.206;13.316;2023-03-23T07:14:20;5.43;;;3.20;;
10659;SDS011;5378;53.206;13.316;2023-03-23T07:17:07;3.80;;;2.27;;
10659;SDS011;5378;53.206;13.316;2023-03-23T07:19:58;4.03;;;2.40;;
10659;SDS011;5378;53.206;13.316;2023-03-23T07:22:44;4.77;;;2.80;;
10659;SDS011;5378;53.206;13.316;2023-03-23T07:26:10;3.40;;;2.27;;
10659;SDS011;5378;53.206;13.316;2023-03-23T07:29:11;6.40;;;2.83;;
10659;SDS011;5378;53.206;13.316;2023-03-23T07:32:00;5.37;;;3.17;;
10659;SDS011;5378;53.206;13.316;2023-03-23T07:34:47;4.27;;;2.50;;
10659;SDS011;5378;53.206;13.316;2023-03-23T07:37:51;5.00;;;3.13;;
10659;SDS011;5378;53.206;13.316;2023-03-23T07:40:38;4.50;;;2.47;;
10659;SDS011;5378;53.206;13.316;2023-03-23T07:43:37;3.30;;;2.67;;
10659;SDS011;5378;53.206;13.316;2023-03-23T07:46:29;5.90;;;2.77;;
10659;SDS011;5378;53.206;13.316;2023-03-23T07:49:28;2.93;;;2.60;;
10659;SDS011;5378;53.206;13.316;2023-03-23T07:52:26;3.73;;;2.63;;
10659;SDS011;5378;53.206;13.316;2023-03-23T07:55:12;5.07;;;2.30;;
10659;SDS011;5378;53.206;13.316;2023-03-23T07:58:30;4.53;;;2.40;;
10659;SDS011;5378;53.206;13.316;2023-03-23T08:01:17;3.77;;;3.20;;
10659;SDS011;5378;53.206;13.316;2023-03-23T08:04:23;4.10;;;3.10;;
10659;SDS011;5378;53.206;13.316;2023-03-23T08:07:33;4.43;;;2.90;;
10659;SDS011;5378;53.206;13.316;2023-03-23T08:10:43;5.50;;;2.57;;
10659;SDS011;5378;53.206;13.316;2023-03-23T08:13:41;6.57;;;2.40;;
10659;SDS011;5378;53.206;13.316;2023-03-23T08:16:49;3.00;;;2.10;;
10659;SDS011;5378;53.206;13.316;2023-03-23T08:19:51;4.53;;;2.50;;
10659;SDS011;5378;53.206;13.316;2023-03-23T08:22:52;6.80;;;2.80;;
10659;SDS011;5378;53.206;13.316;2023-03-23T08:25:48;5.93;;;2.03;;
10659;SDS011;5378;53.206;13.316;2023-03-23T08:28:38;6.37;;;2.37;;
10659;SDS011;5378;53.206;13.316;2023-03-23T08:31:51;4.27;;;2.07;;
10659;SDS011;5378;53.206;13.316;2023-03-23T08:34:52;5.70;;;1.93;;
10659;SDS011;5378;53.206;13.316;2023-03-23T08:37:56;3.00;;;2.43;;
10659;SDS011;5378;53.206;13.316;2023-03-23T08:41:02;3.20;;;2.30;;
10659;SDS011;5378;53.206;13.316;2023-03-23T08:44:10;6.60;;;2.37;;
10659;SDS011;5378;53.206;13.316;2023-03-23T08:47:24;2.33;;;1.80;;
10659;SDS011;5378;53.206;13.316;2023-03-23T08:50:28;3.27;;;2.10;;
10659;SDS011;5378;53.206;13.316;2023-03-23T08:53:28;1.57;;;1.47;;
10659;SDS011;5378;53.206;13.316;2023-03-23T08:56:33;6.53;;;1.60;;
10659;SDS011;5378;53.206;13.316;2023-03-23T08:59:42;3.67;;;0.87;;
10659;SDS011;5378;53.206;13.316;2023-03-23T09:02:37;4.00;;;1.80;;
10659;SDS011;5378;53.206;13.316;2023-03-23T09:05:32;2.23;;;1.37;;
10659;SDS011;5378;53.206;13.316;2023-03-23T09:08:36;7.43;;;2.17;;
10659;SDS011;5378;53.206;13.316;2023-03-23T09:11:22;2.03;;;1.87;;
10659;SDS011;5378;53.206;13.316;2023-03-23T09:14:08;1.40;;;1.03;;
10659;SDS011;5378;53.206;13.316;2023-03-23T09:16:56;1.50;;;1.17;;
10659;SDS011;5378;53.206;13.316;2023-03-23T09:19:44;1.20;;;1.00;;
10659;SDS011;5378;53.206;13.316;2023-03-23T09:22:30;1.37;;;1.10;;
10659;SDS011;5378;53.206;13.316;2023-03-23T09:25:17;1.20;;;1.00;;
10659;SDS011;5378;53.206;13.316;2023-03-23T09:28:06;1.63;;;1.13;;
10659;SDS011;5378;53.206;13.316;2023-03-23T09:30:54;3.50;;;1.27;;
10659;SDS011;5378;53.206;13.316;2023-03-23T09:33:40;3.13;;;1.20;;
10659;SDS011;5378;53.206;13.316;2023-03-23T09:36:30;1.33;;;1.03;;
10659;SDS011;5378;53.206;13.316;2023-03-23T09:39:16;1.80;;;1.03;;
10659;SDS011;5378;53.206;13.316;2023-03-23T09:42:07;4.00;;;1.10;;
10659;SDS011;5378;53.206;13.316;2023-03-23T09:45:05;1.53;;;0.83;;
10659;SDS011;5378;53.206;13.316;2023-03-23T09:48:02;2.70;;;1.40;;
10659;SDS011;5378;53.206;13.316;2023-03-23T09:51:08;1.90;;;1.20;;
10659;SDS011;5378;53.206;13.316;2023-03-23T09:54:04;1.90;;;1.30;;
10659;SDS011;5378;53.206;13.316;2023-03-23T09:56:58;2.20;;;1.40;;
10659;SDS011;5378;53.206;13.316;2023-03-23T09:59:46;2.57;;;1.10;;
10659;SDS011;5378;53.206;13.316;2023-03-23T10:02:38;1.87;;;1.20;;
10659;SDS011;5378;53.206;13.316;2023-03-23T10:05:31;1.73;;;0.80;;
10659;SDS011;5378;53.206;13.316;2023-03-23T10:08:20;1.60;;;0.83;;
10659;SDS011;5378;53.206;13.316;2023-03-23T10:11:10;1.30;;;1.20;;
10659;SDS011;5378;53.206;13.316;2023-03-23T10:14:07;1.40;;;0.90;;
10659;SDS011;5378;53.206;13.316;2023-03-23T10:17:02;1.17;;;0.90;;
10659;SDS011;5378;53.206;13.316;2023-03-23T10:19:55;2.13;;;0.80;;
10659;SDS011;5378;53.206;13.316;2023-03-23T10:22:50;3.13;;;1.07;;
10659;SDS011;5378;53.206;13.316;2023-03-23T10:25:42;1.43;;;0.93;;
10659;SDS011;5378;53.206;13.316;2023-03-23T10:28:38;2.93;;;1.20;;
10659;SDS011;5378;53.206;13.316;2023-03-23T10:31:27;1.33;;;0.90;;
10659;SDS011;5378;53.206;13.316;2023-03-23T10:34:18;2.50;;;0.93;;
10659;SDS011;5378;53.206;13.316;2023-03-23T10:37:09;2.00;;;1.13;;
10659;SDS011;5378;53.206;13.316;2023-03-23T10:39:58;4.23;;;1.57;;
10659;SDS011;5378;53.206;13.316;2023-03-23T10:42:47;1.63;;;1.00;;
10659;SDS011;5378;53.206;13.316;2023-03-23T10:45:34;1.27;;;0.80;;
10659;SDS011;5378;53.206;13.316;2023-03-23T10:48:22;1.60;;;1.20;;
10659;SDS011;5378;53.206;13.316;2023-03-23T10:51:12;1.57;;;0.93;;
10659;SDS011;5378;53.206;13.316;2023-03-23T10:54:02;2.40;;;1.10;;
10659;SDS011;5378;53.206;13.316;2023-03-23T10:56:50;2.07;;;1.13;;
10659;SDS011;5378;53.206;13.316;2023-03-23T10:59:39;2.07;;;1.00;;
10659;SDS011;5378;53.206;13.316;2023-03-23T11:02:27;2.10;;;0.77;;
10659;SDS011;5378;53.206;13.316;2023-03-23T11:05:15;1.17;;;0.80;;
10659;SDS011;5378;53.206;13.316;2023-03-23T11:08:03;2.40;;;1.43;;
10659;SDS011;5378;53.206;13.316;2023-03-23T11:10:58;1.60;;;0.90;;
10659;SDS011;5378;53.206;13.316;2023-03-23T11:13:56;2.87;;;1.07;;
10659;SDS011;5378;53.206;13.316;2023-03-23T11:16:45;1.63;;;0.93;;
10659;SDS011;5378;53.206;13.316;2023-03-23T11:19:38;2.10;;;0.87;;
10659;SDS011;5378;53.206;13.316;2023-03-23T11:22:25;1.40;;;0.90;;
10659;SDS011;5378;53.206;13.316;2023-03-23T11:25:12;3.20;;;0.87;;
10659;SDS011;5378;53.206;13.316;2023-03-23T11:28:00;6.67;;;1.00;;
10659;SDS011;5378;53.206;13.316;2023-03-23T11:30:47;3.43;;;1.00;;
10659;SDS011;5378;53.206;13.316;2023-03-23T11:33:36;3.87;;;0.80;;
10659;SDS011;5378;53.206;13.316;2023-03-23T11:36:30;1.60;;;1.30;;
10659;SDS011;5378;53.206;13.316;2023-03-23T11:39:19;4.70;;;1.10;;
10659;SDS011;5378;53.206;13.316;2023-03-23T11:42:11;0.90;;;0.70;;
10659;SDS011;5378;53.206;13.316;2023-03-23T11:45:05;2.13;;;1.23;;
10659;SDS011;5378;53.206;13.316;2023-03-23T11:48:03;2.60;;;1.30;;
10659;SDS011;5378;53.206;13.316;2023-03-23T11:50:59;1.10;;;0.83;;
10659;SDS011;5378;53.206;13.316;2023-03-23T11:53:50;1.27;;;0.83;;
10659;SDS011;5378;53.206;13.316;2023-03-23T11:56:42;5.93;;;2.93;;
10659;SDS011;5378;53.206;13.316;2023-03-23T11:59:31;2.20;;;1.70;;
10659;SDS011;5378;53.206;13.316;2023-03-23T12:02:28;2.70;;;2.27;;
10659;SDS011;5378;53.206;13.316;2023-03-23T12:08:36;3.10;;;1.33;;
10659;SDS011;5378;53.206;13.316;2023-03-23T12:11:36;1.13;;;0.87;;
10659;SDS011;5378;53.206;13.316;2023-03-23T12:14:31;1.73;;;0.90;;
10659;SDS011;5378;53.206;13.316;2023-03-23T12:17:24;2.60;;;0.80;;
10659;SDS011;5378;53.206;13.316;2023-03-23T12:20:23;1.43;;;0.97;;
10659;SDS011;5378;53.206;13.316;2023-03-23T12:23:23;1.97;;;1.20;;
10659;SDS011;5378;53.206;13.316;2023-03-23T12:26:16;2.30;;;1.30;;
10659;SDS011;5378;53.206;13.316;2023-03-23T12:29:14;2.67;;;0.87;;
10659;SDS011;5378;53.206;13.316;2023-03-23T12:32:23;1.43;;;0.80;;
10659;SDS011;5378;53.206;13.316;2023-03-23T12:35:36;1.17;;;0.90;;
10659;SDS011;5378;53.206;13.316;2023-03-23T12:38:40;2.10;;;1.10;;
10659;SDS011;5378;53.206;13.316;2023-03-23T12:41:37;2.23;;;1.37;;
10659;SDS011;5378;53.206;13.316;2023-03-23T12:44:34;2.03;;;1.40;;
10659;SDS011;5378;53.206;13.316;2023-03-23T12:47:29;2.13;;;1.10;;
10659;SDS011;5378;53.206;13.316;2023-03-23T12:50:23;1.43;;;0.73;;
10659;SDS011;5378;53.206;13.316;2023-03-23T12:53:14;4.37;;;1.13;;
10659;SDS011;5378;53.206;13.316;2023-03-23T12:56:08;1.57;;;1.10;;
10659;SDS011;5378;53.206;13.316;2023-03-23T12:58:59;1.87;;;1.10;;
10659;SDS011;5378;53.206;13.316;2023-03-23T13:01:54;0.70;;;0.60;;
10659;SDS011;5378;53.206;13.316;2023-03-23T13:04:44;1.17;;;0.70;;
10659;SDS011;5378;53.206;13.316;2023-03-23T13:07:33;3.00;;;1.07;;
10659;SDS011;5378;53.206;13.316;2023-03-23T13:10:38;1.30;;;0.90;;
10659;SDS011;5378;53.206;13.316;2023-03-23T13:13:39;0.73;;;0.70;;
10659;SDS011;5378;53.206;13.316;2023-03-23T13:16:29;1.07;;;0.97;;
10659;SDS011;5378;53.206;13.316;2023-03-23T13:19:25;3.20;;;1.53;;
10659;SDS011;5378;53.206;13.316;2023-03-23T13:22:17;2.20;;;1.07;;
10659;SDS011;5378;53.206;13.316;2023-03-23T13:25:07;4.23;;;1.17;;
10659;SDS011;5378;53.206;13.316;2023-03-23T13:27:59;1.10;;;0.77;;
10659;SDS011;5378;53.206;13.316;2023-03-23T13:30:52;4.57;;;0.80;;
10659;SDS011;5378;53.206;13.316;2023-03-23T13:33:45;1.20;;;0.57;;
10659;SDS011;5378;53.206;13.316;2023-03-23T13:36:37;1.30;;;0.63;;
10659;SDS011;5378;53.206;13.316;2023-03-23T13:39:24;2.97;;;0.97;;
10659;SDS011;5378;53.206;13.316;2023-03-23T13:42:17;2.20;;;0.80;;
10659;SDS011;5378;53.206;13.316;2023-03-23T13:45:07;7.40;;;0.90;;
10659;SDS011;5378;53.206;13.316;2023-03-23T13:48:16;1.17;;;0.63;;
10659;SDS011;5378;53.206;13.316;2023-03-23T13:54:20;1.67;;;0.90;;
10659;SDS011;5378;53.206;13.316;2023-03-23T13:57:23;0.80;;;0.60;;
10659;SDS011;5378;53.206;13.316;2023-03-23T14:00:33;1.57;;;1.07;;
10659;SDS011;5378;53.206;13.316;2023-03-23T14:03:35;3.27;;;1.23;;
10659;SDS011;5378;53.206;13.316;2023-03-23T14:06:22;0.80;;;0.77;;
10659;SDS011;5378;53.206;13.316;2023-03-23T14:09:33;1.43;;;0.80;;
10659;SDS011;5378;53.206;13.316;2023-03-23T14:12:25;4.23;;;0.70;;
10659;SDS011;5378;53.206;13.316;2023-03-23T14:15:14;1.93;;;0.60;;
10659;SDS011;5378;53.206;13.316;2023-03-23T14:18:01;1.97;;;0.70;;
10659;SDS011;5378;53.206;13.316;2023-03-23T14:20:49;2.30;;;0.90;;
10659;SDS011;5378;53.206;13.316;2023-03-23T14:23:35;0.70;;;0.50;;
10659;SDS011;5378;53.206;13.316;2023-03-23T14:26:22;0.83;;;0.57;;
10659;SDS011;5378;53.206;13.316;2023-03-23T14:29:09;1.10;;;0.63;;
10659;SDS011;5378;53.206;13.316;2023-03-23T14:31:57;1.37;;;0.70;;
10659;SDS011;5378;53.206;13.316;2023-03-23T14:34:46;2.47;;;0.90;;
10659;SDS011;5378;53.206;13.316;2023-03-23T14:37:33;1.50;;;0.47;;
10659;SDS011;5378;53.206;13.316;2023-03-23T14:40:20;4.73;;;0.63;;
10659;SDS011;5378;53.206;13.316;2023-03-23T14:43:08;1.07;;;0.90;;
10659;SDS011;5378;53.206;13.316;2023-03-23T14:45:58;0.70;;;0.43;;
10659;SDS011;5378;53.206;13.316;2023-03-23T14:48:45;1.87;;;0.97;;
10659;SDS011;5378;53.206;13.316;2023-03-23T14:51:31;2.03;;;0.77;;
10659;SDS011;5378;53.206;13.316;2023-03-23T14:54:20;2.17;;;0.90;;
10659;SDS011;5378;53.206;13.316;2023-03-23T14:57:10;2.53;;;0.80;;
10659;SDS011;5378;53.206;13.316;2023-03-23T14:59:59;1.00;;;0.60;;
10659;SDS011;5378;53.206;13.316;2023-03-23T15:02:46;1.07;;;0.40;;
10659;SDS011;5378;53.206;13.316;2023-03-23T15:05:35;2.10;;;0.60;;
10659;SDS011;5378;53.206;13.316;2023-03-23T15:08:24;2.73;;;0.40;;
10659;SDS011;5378;53.206;13.316;2023-03-23T15:11:21;0.60;;;0.40;;
10659;SDS011;5378;53.206;13.316;2023-03-23T15:14:14;1.17;;;0.50;;
10659;SDS011;5378;53.206;13.316;2023-03-23T15:17:04;2.93;;;0.60;;
10659;SDS011;5378;53.206;13.316;2023-03-23T15:19:50;2.07;;;1.00;;
10659;SDS011;5378;53.206;13.316;2023-03-23T15:22:44;0.90;;;0.50;;
10659;SDS011;5378;53.206;13.316;2023-03-23T15:25:32;0.90;;;0.63;;
10659;SDS011;5378;53.206;13.316;2023-03-23T15:28:28;2.03;;;0.53;;
10659;SDS011;5378;53.206;13.316;2023-03-23T15:31:16;2.43;;;0.70;;
10659;SDS011;5378;53.206;13.316;2023-03-23T15:34:03;1.77;;;0.80;;
10659;SDS011;5378;53.206;13.316;2023-03-23T15:36:55;4.43;;;0.60;;
10659;SDS011;5378;53.206;13.316;2023-03-23T15:39:44;2.30;;;0.97;;
10659;SDS011;5378;53.206;13.316;2023-03-23T15:42:32;6.67;;;0.80;;
10659;SDS011;5378;53.206;13.316;2023-03-23T15:45:24;2.90;;;2.30;;
10659;SDS011;5378;53.206;13.316;2023-03-23T15:48:12;7.13;;;3.73;;
10659;SDS011;5378;53.206;13.316;2023-03-23T15:51:01;2.97;;;2.50;;
10659;SDS011;5378;53.206;13.316;2023-03-23T15:53:49;1.93;;;1.00;;
10659;SDS011;5378;53.206;13.316;2023-03-23T15:56:36;2.20;;;1.40;;
10659;SDS011;5378;53.206;13.316;2023-03-23T15:59:22;1.77;;;1.33;;
10659;SDS011;5378;53.206;13.316;2023-03-23T16:02:13;1.43;;;1.03;;
10659;SDS011;5378;53.206;13.316;2023-03-23T16:05:05;1.20;;;1.00;;
10659;SDS011;5378;53.206;13.316;2023-03-23T16:07:54;3.00;;;1.30;;
10659;SDS011;5378;53.206;13.316;2023-03-23T16:10:41;1.70;;;1.60;;
10659;SDS011;5378;53.206;13.316;2023-03-23T16:13:28;2.30;;;1.63;;
10659;SDS011;5378;53.206;13.316;2023-03-23T16:16:16;2.80;;;1.23;;
10659;SDS011;5378;53.206;13.316;2023-03-23T16:19:07;3.17;;;1.13;;
10659;SDS011;5378;53.206;13.316;2023-03-23T16:21:56;1.47;;;1.33;;
10659;SDS011;5378;53.206;13.316;2023-03-23T16:24:44;2.77;;;1.23;;
10659;SDS011;5378;53.206;13.316;2023-03-23T16:27:31;9.07;;;1.90;;
10659;SDS011;5378;53.206;13.316;2023-03-23T16:30:19;3.10;;;1.30;;
10659;SDS011;5378;53.206;13.316;2023-03-23T16:33:08;3.70;;;1.40;;
10659;SDS011;5378;53.206;13.316;2023-03-23T16:35:55;4.07;;;1.77;;
10659;SDS011;5378;53.206;13.316;2023-03-23T16:38:42;3.40;;;1.20;;
10659;SDS011;5378;53.206;13.316;2023-03-23T16:41:31;2.00;;;0.70;;
10659;SDS011;5378;53.206;13.316;2023-03-23T16:44:18;0.90;;;0.70;;
10659;SDS011;5378;53.206;13.316;2023-03-23T16:47:05;2.20;;;1.23;;
10659;SDS011;5378;53.206;13.316;2023-03-23T16:49:52;4.13;;;1.33;;
10659;SDS011;5378;53.206;13.316;2023-03-23T16:52:39;3.13;;;1.10;;
10659;SDS011;5378;53.206;13.316;2023-03-23T16:55:28;1.87;;;1.07;;
10659;SDS011;5378;53.206;13.316;2023-03-23T16:58:17;1.13;;;0.93;;
10659;SDS011;5378;53.206;13.316;2023-03-23T17:01:05;2.10;;;1.03;;
10659;SDS011;5378;53.206;13.316;2023-03-23T17:03:52;2.03;;;1.13;;
10659;SDS011;5378;53.206;13.316;2023-03-23T17:06:40;3.63;;;1.30;;
10659;SDS011;5378;53.206;13.316;2023-03-23T17:09:28;1.97;;;1.10;;
10659;SDS011;5378;53.206;13.316;2023-03-23T17:12:15;1.70;;;1.20;;
10659;SDS011;5378;53.206;13.316;2023-03-23T17:15:05;2.83;;;0.80;;
10659;SDS011;5378;53.206;13.316;2023-03-23T17:17:53;6.50;;;1.07;;
10659;SDS011;5378;53.206;13.316;2023-03-23T17:20:41;3.93;;;1.30;;
10659;SDS011;5378;53.206;13.316;2023-03-23T17:23:28;2.70;;;1.47;;
10659;SDS011;5378;53.206;13.316;2023-03-23T17:26:15;5.43;;;1.07;;